Terminal Aerodrome Forecast
Issued by NWS Charleston, WV

Home | Current Version | Previous Version | Text Only | Print | Product List | Glossary On
Versions: 1 2 3 4 5 6 7 8 9 10 11 12 13 14 15 16 17 18 19 20 21 22 23 24 25 26 27 28
000
FTUS41 KRLX 210200 AAA
TAFHTS
TAF AMD
KHTS 210224Z 2102/2124 22004KT P6SM SCT150
     FM210400 VRB03KT 6SM BR SCT100
     FM210600 VRB03KT 4SM BR SCT080
     FM211200 VRB03KT 2SM BR SCT045
     FM211300 VRB03KT 5SM -SHRA BKN040
     FM211700 23005KT P6SM -TSRA BKN030CB
     FM212000 22005KT P6SM VCTS BKN035CB=

USA.gov is the U.S. government's official web portal to all federal, state and local government web resources and services.